sensor_id;sensor_type;location;lat;lon;timestamp;P1;durP1;ratioP1;P2;durP2;ratioP2
9056;SDS011;4563;54.756;9.400;2023-04-01T00:01:55;4.57;;;2.00;;
9056;SDS011;4563;54.756;9.400;2023-04-01T00:04:25;1.93;;;1.40;;
9056;SDS011;4563;54.756;9.400;2023-04-01T00:06:52;1.20;;;1.10;;
9056;SDS011;4563;54.756;9.400;2023-04-01T00:09:21;2.50;;;1.40;;
9056;SDS011;4563;54.756;9.400;2023-04-01T00:11:48;1.83;;;1.13;;
9056;SDS011;4563;54.756;9.400;2023-04-01T00:14:15;2.47;;;1.30;;
9056;SDS011;4563;54.756;9.400;2023-04-01T00:16:42;0.93;;;0.90;;
9056;SDS011;4563;54.756;9.400;2023-04-01T00:19:10;2.20;;;1.00;;
9056;SDS011;4563;54.756;9.400;2023-04-01T00:21:37;1.47;;;1.37;;
9056;SDS011;4563;54.756;9.400;2023-04-01T00:24:04;2.50;;;1.03;;
9056;SDS011;4563;54.756;9.400;2023-04-01T00:26:31;2.40;;;1.07;;
9056;SDS011;4563;54.756;9.400;2023-04-01T00:28:58;1.60;;;1.00;;
9056;SDS011;4563;54.756;9.400;2023-04-01T00:31:25;1.70;;;1.00;;
9056;SDS011;4563;54.756;9.400;2023-04-01T00:33:52;1.13;;;0.83;;
9056;SDS011;4563;54.756;9.400;2023-04-01T00:36:21;2.10;;;0.97;;
9056;SDS011;4563;54.756;9.400;2023-04-01T00:38:48;0.83;;;0.70;;
9056;SDS011;4563;54.756;9.400;2023-04-01T00:41:16;1.17;;;0.90;;
9056;SDS011;4563;54.756;9.400;2023-04-01T00:43:45;3.13;;;1.10;;
9056;SDS011;4563;54.756;9.400;2023-04-01T00:46:13;1.57;;;1.00;;
9056;SDS011;4563;54.756;9.400;2023-04-01T00:48:41;2.13;;;1.27;;
9056;SDS011;4563;54.756;9.400;2023-04-01T00:51:11;0.87;;;0.87;;
9056;SDS011;4563;54.756;9.400;2023-04-01T00:53:44;1.37;;;1.20;;
9056;SDS011;4563;54.756;9.400;2023-04-01T00:56:13;1.63;;;1.00;;
9056;SDS011;4563;54.756;9.400;2023-04-01T00:58:44;1.07;;;0.80;;
9056;SDS011;4563;54.756;9.400;2023-04-01T01:01:14;1.63;;;0.60;;
9056;SDS011;4563;54.756;9.400;2023-04-01T01:03:41;0.70;;;0.60;;
9056;SDS011;4563;54.756;9.400;2023-04-01T01:06:10;0.53;;;0.40;;
9056;SDS011;4563;54.756;9.400;2023-04-01T01:08:59;0.50;;;0.50;;
9056;SDS011;4563;54.756;9.400;2023-04-01T01:11:39;1.50;;;0.67;;
9056;SDS011;4563;54.756;9.400;2023-04-01T01:14:12;1.77;;;0.50;;
9056;SDS011;4563;54.756;9.400;2023-04-01T01:16:51;0.50;;;0.50;;
9056;SDS011;4563;54.756;9.400;2023-04-01T01:19:35;1.53;;;0.53;;
9056;SDS011;4563;54.756;9.400;2023-04-01T01:22:33;1.17;;;0.50;;
9056;SDS011;4563;54.756;9.400;2023-04-01T01:25:17;0.50;;;0.40;;
9056;SDS011;4563;54.756;9.400;2023-04-01T01:27:57;0.30;;;0.30;;
9056;SDS011;4563;54.756;9.400;2023-04-01T01:30:40;0.83;;;0.40;;
9056;SDS011;4563;54.756;9.400;2023-04-01T01:33:25;0.40;;;0.33;;
9056;SDS011;4563;54.756;9.400;2023-04-01T01:36:30;0.40;;;0.40;;
9056;SDS011;4563;54.756;9.400;2023-04-01T01:39:00;2.23;;;0.30;;
9056;SDS011;4563;54.756;9.400;2023-04-01T01:41:29;2.43;;;0.50;;
9056;SDS011;4563;54.756;9.400;2023-04-01T01:43:57;1.80;;;0.40;;
9056;SDS011;4563;54.756;9.400;2023-04-01T01:46:26;0.40;;;0.40;;
9056;SDS011;4563;54.756;9.400;2023-04-01T01:48:53;0.30;;;0.30;;
9056;SDS011;4563;54.756;9.400;2023-04-01T01:51:22;0.87;;;0.40;;
9056;SDS011;4563;54.756;9.400;2023-04-01T01:53:51;0.40;;;0.30;;
9056;SDS011;4563;54.756;9.400;2023-04-01T01:56:18;0.60;;;0.30;;
9056;SDS011;4563;54.756;9.400;2023-04-01T01:58:49;0.90;;;0.40;;
9056;SDS011;4563;54.756;9.400;2023-04-01T02:01:19;0.77;;;0.20;;
9056;SDS011;4563;54.756;9.400;2023-04-01T02:03:50;1.13;;;0.23;;
9056;SDS011;4563;54.756;9.400;2023-04-01T02:06:20;1.67;;;0.10;;
9056;SDS011;4563;54.756;9.400;2023-04-01T02:08:49;1.30;;;0.30;;
9056;SDS011;4563;54.756;9.400;2023-04-01T02:11:22;0.13;;;0.13;;
9056;SDS011;4563;54.756;9.400;2023-04-01T02:13:53;2.10;;;0.10;;
9056;SDS011;4563;54.756;9.400;2023-04-01T02:16:23;0.10;;;0.07;;
9056;SDS011;4563;54.756;9.400;2023-04-01T02:18:54;0.33;;;0.20;;
9056;SDS011;4563;54.756;9.400;2023-04-01T02:21:24;1.27;;;0.10;;
9056;SDS011;4563;54.756;9.400;2023-04-01T02:23:55;0.10;;;0.10;;
9056;SDS011;4563;54.756;9.400;2023-04-01T02:26:24;0.80;;;0.20;;
9056;SDS011;4563;54.756;9.400;2023-04-01T02:28:52;1.70;;;0.20;;
9056;SDS011;4563;54.756;9.400;2023-04-01T02:31:20;0.47;;;0.10;;
9056;SDS011;4563;54.756;9.400;2023-04-01T02:33:48;1.70;;;0.20;;
9056;SDS011;4563;54.756;9.400;2023-04-01T02:36:15;0.43;;;0.22;;
9056;SDS011;4563;54.756;9.400;2023-04-01T02:38:43;0.40;;;0.10;;
9056;SDS011;4563;54.756;9.400;2023-04-01T02:41:13;0.63;;;0.10;;
9056;SDS011;4563;54.756;9.400;2023-04-01T02:43:40;0.93;;;0.10;;
9056;SDS011;4563;54.756;9.400;2023-04-01T02:46:06;0.50;;;0.10;;
9056;SDS011;4563;54.756;9.400;2023-04-01T02:48:33;0.07;;;0.07;;
9056;SDS011;4563;54.756;9.400;2023-04-01T02:51:00;0.20;;;0.00;;
9056;SDS011;4563;54.756;9.400;2023-04-01T02:53:27;0.37;;;0.10;;
9056;SDS011;4563;54.756;9.400;2023-04-01T02:55:54;0.30;;;0.10;;
9056;SDS011;4563;54.756;9.400;2023-04-01T02:58:22;0.00;;;0.00;;
9056;SDS011;4563;54.756;9.400;2023-04-01T03:00:49;0.10;;;0.10;;
9056;SDS011;4563;54.756;9.400;2023-04-01T03:03:15;0.10;;;0.10;;
9056;SDS011;4563;54.756;9.400;2023-04-01T03:05:42;0.10;;;0.10;;
9056;SDS011;4563;54.756;9.400;2023-04-01T03:08:09;0.10;;;0.00;;
9056;SDS011;4563;54.756;9.400;2023-04-01T03:10:36;0.00;;;0.00;;
9056;SDS011;4563;54.756;9.400;2023-04-01T03:13:03;0.10;;;0.10;;
9056;SDS011;4563;54.756;9.400;2023-04-01T03:15:32;0.70;;;0.20;;
9056;SDS011;4563;54.756;9.400;2023-04-01T03:17:59;0.40;;;0.10;;
9056;SDS011;4563;54.756;9.400;2023-04-01T03:20:26;0.70;;;0.20;;
9056;SDS011;4563;54.756;9.400;2023-04-01T03:22:53;0.93;;;0.20;;
9056;SDS011;4563;54.756;9.400;2023-04-01T03:25:20;0.10;;;0.10;;
9056;SDS011;4563;54.756;9.400;2023-04-01T03:27:46;0.30;;;0.20;;
9056;SDS011;4563;54.756;9.400;2023-04-01T03:30:13;0.73;;;0.20;;
9056;SDS011;4563;54.756;9.400;2023-04-01T03:32:41;0.13;;;0.10;;
9056;SDS011;4563;54.756;9.400;2023-04-01T03:35:08;0.67;;;0.13;;
9056;SDS011;4563;54.756;9.400;2023-04-01T03:37:38;0.97;;;0.17;;
9056;SDS011;4563;54.756;9.400;2023-04-01T03:40:05;1.13;;;0.30;;
9056;SDS011;4563;54.756;9.400;2023-04-01T03:42:33;0.97;;;0.20;;
9056;SDS011;4563;54.756;9.400;2023-04-01T03:45:00;2.13;;;0.23;;
9056;SDS011;4563;54.756;9.400;2023-04-01T03:47:27;1.10;;;0.27;;
9056;SDS011;4563;54.756;9.400;2023-04-01T03:49:55;2.33;;;0.30;;
9056;SDS011;4563;54.756;9.400;2023-04-01T03:52:22;1.80;;;0.30;;
9056;SDS011;4563;54.756;9.400;2023-04-01T03:54:49;0.63;;;0.30;;
9056;SDS011;4563;54.756;9.400;2023-04-01T03:57:16;1.70;;;0.40;;
9056;SDS011;4563;54.756;9.400;2023-04-01T03:59:43;1.30;;;0.30;;
9056;SDS011;4563;54.756;9.400;2023-04-01T04:02:11;0.77;;;0.33;;
9056;SDS011;4563;54.756;9.400;2023-04-01T04:04:38;2.20;;;0.60;;
9056;SDS011;4563;54.756;9.400;2023-04-01T04:07:07;1.17;;;0.30;;
9056;SDS011;4563;54.756;9.400;2023-04-01T04:09:34;1.53;;;0.33;;
9056;SDS011;4563;54.756;9.400;2023-04-01T04:12:01;1.23;;;0.40;;
9056;SDS011;4563;54.756;9.400;2023-04-01T04:14:28;1.67;;;0.30;;
9056;SDS011;4563;54.756;9.400;2023-04-01T04:16:54;1.03;;;0.40;;
9056;SDS011;4563;54.756;9.400;2023-04-01T04:19:21;1.47;;;0.40;;
9056;SDS011;4563;54.756;9.400;2023-04-01T04:21:48;3.50;;;0.40;;
9056;SDS011;4563;54.756;9.400;2023-04-01T04:24:18;0.97;;;0.50;;
9056;SDS011;4563;54.756;9.400;2023-04-01T04:26:44;5.60;;;0.70;;
9056;SDS011;4563;54.756;9.400;2023-04-01T04:29:11;0.83;;;0.47;;
9056;SDS011;4563;54.756;9.400;2023-04-01T04:31:38;1.43;;;0.40;;
9056;SDS011;4563;54.756;9.400;2023-04-01T04:34:05;0.83;;;0.30;;
9056;SDS011;4563;54.756;9.400;2023-04-01T04:36:32;0.30;;;0.30;;
9056;SDS011;4563;54.756;9.400;2023-04-01T04:38:59;1.73;;;0.50;;
9056;SDS011;4563;54.756;9.400;2023-04-01T04:41:28;1.60;;;0.70;;
9056;SDS011;4563;54.756;9.400;2023-04-01T04:43:55;1.03;;;0.40;;
9056;SDS011;4563;54.756;9.400;2023-04-01T04:46:23;0.87;;;0.40;;
9056;SDS011;4563;54.756;9.400;2023-04-01T04:48:53;1.63;;;0.40;;
9056;SDS011;4563;54.756;9.400;2023-04-01T04:51:22;2.63;;;0.50;;
9056;SDS011;4563;54.756;9.400;2023-04-01T04:53:50;0.80;;;0.30;;
9056;SDS011;4563;54.756;9.400;2023-04-01T04:56:17;0.50;;;0.50;;
9056;SDS011;4563;54.756;9.400;2023-04-01T04:58:46;1.30;;;0.30;;
9056;SDS011;4563;54.756;9.400;2023-04-01T05:01:13;1.43;;;0.40;;
9056;SDS011;4563;54.756;9.400;2023-04-01T05:03:41;2.67;;;0.60;;
9056;SDS011;4563;54.756;9.400;2023-04-01T05:06:09;1.10;;;0.20;;
9056;SDS011;4563;54.756;9.400;2023-04-01T05:08:38;0.83;;;0.20;;
9056;SDS011;4563;54.756;9.400;2023-04-01T05:11:06;1.00;;;0.37;;
9056;SDS011;4563;54.756;9.400;2023-04-01T05:13:34;0.90;;;0.40;;
9056;SDS011;4563;54.756;9.400;2023-04-01T05:16:03;1.37;;;0.30;;
9056;SDS011;4563;54.756;9.400;2023-04-01T05:18:33;1.03;;;0.30;;
9056;SDS011;4563;54.756;9.400;2023-04-01T05:21:00;1.97;;;0.40;;
9056;SDS011;4563;54.756;9.400;2023-04-01T05:23:27;2.50;;;0.47;;
9056;SDS011;4563;54.756;9.400;2023-04-01T05:25:55;0.73;;;0.20;;
9056;SDS011;4563;54.756;9.400;2023-04-01T05:28:22;0.83;;;0.20;;
9056;SDS011;4563;54.756;9.400;2023-04-01T05:30:49;0.50;;;0.10;;
9056;SDS011;4563;54.756;9.400;2023-04-01T05:33:17;2.20;;;0.40;;
9056;SDS011;4563;54.756;9.400;2023-04-01T05:35:44;0.67;;;0.10;;
9056;SDS011;4563;54.756;9.400;2023-04-01T05:38:11;0.23;;;0.20;;
9056;SDS011;4563;54.756;9.400;2023-04-01T05:40:37;0.30;;;0.20;;
9056;SDS011;4563;54.756;9.400;2023-04-01T05:43:07;0.90;;;0.30;;
9056;SDS011;4563;54.756;9.400;2023-04-01T05:45:34;1.47;;;0.20;;
9056;SDS011;4563;54.756;9.400;2023-04-01T05:48:01;2.70;;;0.40;;
9056;SDS011;4563;54.756;9.400;2023-04-01T05:50:29;1.20;;;0.40;;
9056;SDS011;4563;54.756;9.400;2023-04-01T05:52:57;1.90;;;0.37;;
9056;SDS011;4563;54.756;9.400;2023-04-01T05:55:24;1.80;;;0.57;;
9056;SDS011;4563;54.756;9.400;2023-04-01T05:57:51;1.80;;;0.40;;
9056;SDS011;4563;54.756;9.400;2023-04-01T06:00:18;1.30;;;0.30;;
9056;SDS011;4563;54.756;9.400;2023-04-01T06:02:45;2.43;;;0.30;;
9056;SDS011;4563;54.756;9.400;2023-04-01T06:05:14;2.63;;;0.40;;
9056;SDS011;4563;54.756;9.400;2023-04-01T06:07:47;2.80;;;0.40;;
9056;SDS011;4563;54.756;9.400;2023-04-01T06:10:15;1.10;;;0.40;;
9056;SDS011;4563;54.756;9.400;2023-04-01T06:12:49;1.23;;;0.30;;
9056;SDS011;4563;54.756;9.400;2023-04-01T06:15:30;0.93;;;0.30;;
9056;SDS011;4563;54.756;9.400;2023-04-01T06:18:24;0.90;;;0.30;;
9056;SDS011;4563;54.756;9.400;2023-04-01T06:21:04;0.93;;;0.20;;
9056;SDS011;4563;54.756;9.400;2023-04-01T06:23:49;1.23;;;0.30;;
9056;SDS011;4563;54.756;9.400;2023-04-01T06:26:30;1.30;;;0.27;;
9056;SDS011;4563;54.756;9.400;2023-04-01T06:32:06;1.90;;;0.60;;
9056;SDS011;4563;54.756;9.400;2023-04-01T06:37:45;2.20;;;0.50;;
9056;SDS011;4563;54.756;9.400;2023-04-01T06:40:38;0.20;;;0.20;;
9056;SDS011;4563;54.756;9.400;2023-04-01T06:43:18;0.40;;;0.30;;
9056;SDS011;4563;54.756;9.400;2023-04-01T06:45:52;1.53;;;0.20;;
9056;SDS011;4563;54.756;9.400;2023-04-01T06:48:30;1.43;;;0.37;;
9056;SDS011;4563;54.756;9.400;2023-04-01T06:51:07;3.10;;;0.40;;
9056;SDS011;4563;54.756;9.400;2023-04-01T06:53:43;1.97;;;0.30;;
9056;SDS011;4563;54.756;9.400;2023-04-01T06:56:18;2.70;;;0.40;;
9056;SDS011;4563;54.756;9.400;2023-04-01T06:58:49;1.03;;;0.20;;
9056;SDS011;4563;54.756;9.400;2023-04-01T07:01:20;1.00;;;0.20;;
9056;SDS011;4563;54.756;9.400;2023-04-01T07:03:53;3.50;;;0.53;;
9056;SDS011;4563;54.756;9.400;2023-04-01T07:06:26;1.43;;;0.37;;
9056;SDS011;4563;54.756;9.400;2023-04-01T07:08:57;0.30;;;0.30;;
9056;SDS011;4563;54.756;9.400;2023-04-01T07:11:31;1.47;;;0.50;;
9056;SDS011;4563;54.756;9.400;2023-04-01T07:14:01;0.70;;;0.40;;
9056;SDS011;4563;54.756;9.400;2023-04-01T07:16:30;1.07;;;0.30;;
9056;SDS011;4563;54.756;9.400;2023-04-01T07:19:01;0.67;;;0.30;;
9056;SDS011;4563;54.756;9.400;2023-04-01T07:21:35;1.27;;;0.30;;
9056;SDS011;4563;54.756;9.400;2023-04-01T07:24:09;0.77;;;0.40;;
9056;SDS011;4563;54.756;9.400;2023-04-01T07:26:43;2.63;;;0.43;;
9056;SDS011;4563;54.756;9.400;2023-04-01T07:29:11;3.07;;;0.40;;
9056;SDS011;4563;54.756;9.400;2023-04-01T07:31:43;2.33;;;0.70;;
9056;SDS011;4563;54.756;9.400;2023-04-01T07:34:18;1.90;;;0.63;;
9056;SDS011;4563;54.756;9.400;2023-04-01T07:36:51;6.13;;;0.60;;
9056;SDS011;4563;54.756;9.400;2023-04-01T07:39:30;4.03;;;0.60;;
9056;SDS011;4563;54.756;9.400;2023-04-01T07:42:11;3.10;;;0.50;;
9056;SDS011;4563;54.756;9.400;2023-04-01T07:44:46;1.53;;;0.60;;
9056;SDS011;4563;54.756;9.400;2023-04-01T07:47:28;1.67;;;0.50;;
9056;SDS011;4563;54.756;9.400;2023-04-01T07:50:09;2.10;;;0.80;;
9056;SDS011;4563;54.756;9.400;2023-04-01T07:52:44;4.27;;;0.70;;
9056;SDS011;4563;54.756;9.400;2023-04-01T07:55:18;2.33;;;0.40;;
9056;SDS011;4563;54.756;9.400;2023-04-01T07:57:51;1.40;;;0.70;;
9056;SDS011;4563;54.756;9.400;2023-04-01T08:00:27;3.43;;;0.90;;
9056;SDS011;4563;54.756;9.400;2023-04-01T08:03:04;0.70;;;0.60;;
9056;SDS011;4563;54.756;9.400;2023-04-01T08:05:46;1.83;;;0.70;;
9056;SDS011;4563;54.756;9.400;2023-04-01T08:08:21;1.60;;;0.63;;
9056;SDS011;4563;54.756;9.400;2023-04-01T08:10:56;1.50;;;0.80;;
9056;SDS011;4563;54.756;9.400;2023-04-01T08:13:32;0.70;;;0.70;;
9056;SDS011;4563;54.756;9.400;2023-04-01T08:16:08;1.00;;;0.50;;
9056;SDS011;4563;54.756;9.400;2023-04-01T08:18:44;2.83;;;0.73;;
9056;SDS011;4563;54.756;9.400;2023-04-01T08:21:21;1.33;;;0.70;;
9056;SDS011;4563;54.756;9.400;2023-04-01T08:23:51;1.63;;;0.80;;
9056;SDS011;4563;54.756;9.400;2023-04-01T08:26:23;2.20;;;0.70;;
9056;SDS011;4563;54.756;9.400;2023-04-01T08:28:59;1.80;;;0.87;;
9056;SDS011;4563;54.756;9.400;2023-04-01T08:31:30;2.67;;;0.87;;
9056;SDS011;4563;54.756;9.400;2023-04-01T08:34:03;2.53;;;1.17;;
9056;SDS011;4563;54.756;9.400;2023-04-01T08:36:36;1.33;;;1.00;;
9056;SDS011;4563;54.756;9.400;2023-04-01T08:39:06;2.60;;;1.20;;
9056;SDS011;4563;54.756;9.400;2023-04-01T08:47:46;4.10;;;0.90;;
9056;SDS011;4563;54.756;9.400;2023-04-01T08:50:31;3.50;;;1.37;;
9056;SDS011;4563;54.756;9.400;2023-04-01T08:53:12;5.07;;;1.50;;
9056;SDS011;4563;54.756;9.400;2023-04-01T08:55:51;5.37;;;1.20;;
9056;SDS011;4563;54.756;9.400;2023-04-01T09:01:38;3.47;;;1.17;;
9056;SDS011;4563;54.756;9.400;2023-04-01T09:04:32;4.93;;;1.30;;
9056;SDS011;4563;54.756;9.400;2023-04-01T09:07:14;6.73;;;1.20;;
9056;SDS011;4563;54.756;9.400;2023-04-01T09:16:03;5.37;;;1.50;;
9056;SDS011;4563;54.756;9.400;2023-04-01T09:27:51;1.97;;;1.30;;
9056;SDS011;4563;54.756;9.400;2023-04-01T09:30:33;2.67;;;1.20;;
9056;SDS011;4563;54.756;9.400;2023-04-01T09:33:16;3.53;;;1.50;;
9056;SDS011;4563;54.756;9.400;2023-04-01T09:36:10;3.43;;;1.30;;
9056;SDS011;4563;54.756;9.400;2023-04-01T09:38:47;3.90;;;1.83;;
9056;SDS011;4563;54.756;9.400;2023-04-01T09:41:24;3.07;;;1.43;;
9056;SDS011;4563;54.756;9.400;2023-04-01T09:43:58;2.53;;;1.40;;
9056;SDS011;4563;54.756;9.400;2023-04-01T09:46:32;3.13;;;1.77;;
9056;SDS011;4563;54.756;9.400;2023-04-01T09:49:19;1.90;;;1.33;;
9056;SDS011;4563;54.756;9.400;2023-04-01T09:54:58;3.03;;;1.23;;
9056;SDS011;4563;54.756;9.400;2023-04-01T09:57:42;2.67;;;1.43;;
9056;SDS011;4563;54.756;9.400;2023-04-01T10:00:52;2.27;;;1.20;;
9056;SDS011;4563;54.756;9.400;2023-04-01T10:03:39;3.43;;;1.50;;
9056;SDS011;4563;54.756;9.400;2023-04-01T10:16:01;4.73;;;1.50;;
9056;SDS011;4563;54.756;9.400;2023-04-01T10:18:55;1.57;;;0.90;;
9056;SDS011;4563;54.756;9.400;2023-04-01T10:21:44;3.33;;;1.10;;
9056;SDS011;4563;54.756;9.400;2023-04-01T10:27:28;2.97;;;1.27;;
9056;SDS011;4563;54.756;9.400;2023-04-01T10:30:33;2.67;;;1.30;;
9056;SDS011;4563;54.756;9.400;2023-04-01T10:33:43;3.50;;;1.37;;
9056;SDS011;4563;54.756;9.400;2023-04-01T10:51:51;3.57;;;1.10;;
9056;SDS011;4563;54.756;9.400;2023-04-01T10:54:43;5.90;;;1.20;;
9056;SDS011;4563;54.756;9.400;2023-04-01T10:57:22;2.50;;;1.53;;
9056;SDS011;4563;54.756;9.400;2023-04-01T11:00:18;3.83;;;1.30;;
9056;SDS011;4563;54.756;9.400;2023-04-01T11:06:26;1.33;;;1.10;;
9056;SDS011;4563;54.756;9.400;2023-04-01T11:15:31;1.63;;;1.10;;
9056;SDS011;4563;54.756;9.400;2023-04-01T11:21:23;2.93;;;1.10;;
9056;SDS011;4563;54.756;9.400;2023-04-01T11:24:24;2.13;;;1.10;;
9056;SDS011;4563;54.756;9.400;2023-04-01T11:27:08;1.23;;;1.10;;
9056;SDS011;4563;54.756;9.400;2023-04-01T11:29:52;1.80;;;1.30;;
9056;SDS011;4563;54.756;9.400;2023-04-01T11:32:41;3.70;;;0.80;;
9056;SDS011;4563;54.756;9.400;2023-04-01T11:35:20;2.60;;;1.03;;
9056;SDS011;4563;54.756;9.400;2023-04-01T11:38:00;2.00;;;1.10;;
9056;SDS011;4563;54.756;9.400;2023-04-01T11:40:38;1.37;;;1.00;;
9056;SDS011;4563;54.756;9.400;2023-04-01T11:43:11;2.03;;;1.00;;
9056;SDS011;4563;54.756;9.400;2023-04-01T11:45:48;2.83;;;1.00;;
9056;SDS011;4563;54.756;9.400;2023-04-01T11:48:26;2.00;;;1.00;;
9056;SDS011;4563;54.756;9.400;2023-04-01T11:51:10;5.07;;;1.03;;
9056;SDS011;4563;54.756;9.400;2023-04-01T11:53:52;3.07;;;0.90;;
9056;SDS011;4563;54.756;9.400;2023-04-01T11:56:42;1.17;;;0.90;;
9056;SDS011;4563;54.756;9.400;2023-04-01T12:02:16;3.03;;;1.20;;
9056;SDS011;4563;54.756;9.400;2023-04-01T12:04:54;3.20;;;1.00;;
9056;SDS011;4563;54.756;9.400;2023-04-01T12:07:34;3.43;;;1.40;;
9056;SDS011;4563;54.756;9.400;2023-04-01T12:10:18;2.83;;;1.53;;
9056;SDS011;4563;54.756;9.400;2023-04-01T12:12:51;2.67;;;1.07;;
9056;SDS011;4563;54.756;9.400;2023-04-01T12:15:26;2.37;;;1.07;;
9056;SDS011;4563;54.756;9.400;2023-04-01T12:18:00;4.47;;;0.93;;
9056;SDS011;4563;54.756;9.400;2023-04-01T12:20:38;1.90;;;0.80;;
9056;SDS011;4563;54.756;9.400;2023-04-01T12:23:24;1.57;;;1.00;;
9056;SDS011;4563;54.756;9.400;2023-04-01T12:26:10;1.93;;;1.20;;
9056;SDS011;4563;54.756;9.400;2023-04-01T12:28:58;2.93;;;1.53;;
9056;SDS011;4563;54.756;9.400;2023-04-01T12:31:37;7.10;;;1.60;;
9056;SDS011;4563;54.756;9.400;2023-04-01T12:34:28;7.27;;;1.57;;
9056;SDS011;4563;54.756;9.400;2023-04-01T12:37:18;3.83;;;1.23;;
9056;SDS011;4563;54.756;9.400;2023-04-01T12:39:57;2.63;;;0.97;;
9056;SDS011;4563;54.756;9.400;2023-04-01T12:46:05;2.47;;;0.70;;
9056;SDS011;4563;54.756;9.400;2023-04-01T12:48:55;3.57;;;1.07;;
9056;SDS011;4563;54.756;9.400;2023-04-01T12:51:47;3.03;;;1.10;;
9056;SDS011;4563;54.756;9.400;2023-04-01T12:54:30;1.43;;;0.90;;
9056;SDS011;4563;54.756;9.400;2023-04-01T12:57:19;2.40;;;0.70;;
9056;SDS011;4563;54.756;9.400;2023-04-01T13:00:03;3.90;;;1.10;;
9056;SDS011;4563;54.756;9.400;2023-04-01T13:02:43;2.07;;;0.87;;
9056;SDS011;4563;54.756;9.400;2023-04-01T13:05:33;0.80;;;0.57;;
9056;SDS011;4563;54.756;9.400;2023-04-01T13:08:24;4.93;;;1.10;;
9056;SDS011;4563;54.756;9.400;2023-04-01T13:11:02;3.87;;;0.93;;
9056;SDS011;4563;54.756;9.400;2023-04-01T13:16:34;2.20;;;0.87;;
9056;SDS011;4563;54.756;9.400;2023-04-01T13:19:06;4.83;;;0.87;;
9056;SDS011;4563;54.756;9.400;2023-04-01T13:21:38;1.80;;;0.80;;
9056;SDS011;4563;54.756;9.400;2023-04-01T13:24:18;2.67;;;0.80;;
9056;SDS011;4563;54.756;9.400;2023-04-01T13:26:53;1.70;;;0.53;;
9056;SDS011;4563;54.756;9.400;2023-04-01T13:29:27;5.67;;;0.80;;
9056;SDS011;4563;54.756;9.400;2023-04-01T13:32:03;1.80;;;0.60;;
9056;SDS011;4563;54.756;9.400;2023-04-01T13:34:42;2.53;;;0.80;;
9056;SDS011;4563;54.756;9.400;2023-04-01T13:37:25;1.20;;;0.70;;
9056;SDS011;4563;54.756;9.400;2023-04-01T13:40:05;3.90;;;1.53;;
9056;SDS011;4563;54.756;9.400;2023-04-01T13:42:49;2.10;;;0.60;;
9056;SDS011;4563;54.756;9.400;2023-04-01T13:45:21;1.47;;;0.60;;
9056;SDS011;4563;54.756;9.400;2023-04-01T13:50:59;2.93;;;0.80;;
9056;SDS011;4563;54.756;9.400;2023-04-01T13:56:50;1.80;;;0.83;;
9056;SDS011;4563;54.756;9.400;2023-04-01T14:02:33;1.47;;;0.90;;
9056;SDS011;4563;54.756;9.400;2023-04-01T14:05:25;2.03;;;0.70;;
9056;SDS011;4563;54.756;9.400;2023-04-01T14:08:17;2.77;;;0.80;;
9056;SDS011;4563;54.756;9.400;2023-04-01T14:10:55;1.57;;;0.60;;
9056;SDS011;4563;54.756;9.400;2023-04-01T14:13:34;2.23;;;0.80;;
9056;SDS011;4563;54.756;9.400;2023-04-01T14:16:23;2.13;;;0.73;;
9056;SDS011;4563;54.756;9.400;2023-04-01T14:19:27;4.17;;;1.23;;
9056;SDS011;4563;54.756;9.400;2023-04-01T14:22:05;2.77;;;0.87;;
9056;SDS011;4563;54.756;9.400;2023-04-01T14:24:49;4.20;;;0.73;;
9056;SDS011;4563;54.756;9.400;2023-04-01T14:27:38;2.20;;;0.70;;
9056;SDS011;4563;54.756;9.400;2023-04-01T14:30:21;1.17;;;0.63;;
9056;SDS011;4563;54.756;9.400;2023-04-01T14:33:01;1.63;;;0.43;;
9056;SDS011;4563;54.756;9.400;2023-04-01T14:35:38;2.73;;;0.60;;
9056;SDS011;4563;54.756;9.400;2023-04-01T14:38:17;1.03;;;0.57;;
9056;SDS011;4563;54.756;9.400;2023-04-01T14:40:55;0.50;;;0.40;;
9056;SDS011;4563;54.756;9.400;2023-04-01T14:43:31;3.30;;;0.73;;
9056;SDS011;4563;54.756;9.400;2023-04-01T14:46:32;0.90;;;0.50;;
9056;SDS011;4563;54.756;9.400;2023-04-01T14:49:14;1.13;;;0.40;;
9056;SDS011;4563;54.756;9.400;2023-04-01T14:51:44;1.77;;;0.60;;
9056;SDS011;4563;54.756;9.400;2023-04-01T14:54:13;2.97;;;0.60;;
9056;SDS011;4563;54.756;9.400;2023-04-01T14:56:49;1.80;;;0.50;;
9056;SDS011;4563;54.756;9.400;2023-04-01T14:59:25;2.53;;;0.50;;
9056;SDS011;4563;54.756;9.400;2023-04-01T15:01:55;1.30;;;0.53;;
9056;SDS011;4563;54.756;9.400;2023-04-01T15:04:35;1.50;;;0.40;;
9056;SDS011;4563;54.756;9.400;2023-04-01T15:07:21;2.50;;;0.43;;
9056;SDS011;4563;54.756;9.400;2023-04-01T15:10:04;3.17;;;0.80;;
9056;SDS011;4563;54.756;9.400;2023-04-01T15:12:49;1.97;;;0.50;;
9056;SDS011;4563;54.756;9.400;2023-04-01T15:15:29;1.57;;;0.60;;
9056;SDS011;4563;54.756;9.400;2023-04-01T15:18:07;1.67;;;0.50;;
9056;SDS011;4563;54.756;9.400;2023-04-01T15:23:37;1.87;;;0.57;;
9056;SDS011;4563;54.756;9.400;2023-04-01T15:26:19;0.67;;;0.50;;
9056;SDS011;4563;54.756;9.400;2023-04-01T15:29:03;4.03;;;0.60;;
9056;SDS011;4563;54.756;9.400;2023-04-01T15:31:42;4.63;;;0.43;;
9056;SDS011;4563;54.756;9.400;2023-04-01T15:34:20;1.43;;;0.40;;
9056;SDS011;4563;54.756;9.400;2023-04-01T15:36:57;4.10;;;0.50;;
9056;SDS011;4563;54.756;9.400;2023-04-01T15:39:34;2.73;;;0.50;;
9056;SDS011;4563;54.756;9.400;2023-04-01T15:42:24;1.07;;;0.63;;
9056;SDS011;4563;54.756;9.400;2023-04-01T15:45:10;1.93;;;0.60;;
9056;SDS011;4563;54.756;9.400;2023-04-01T15:47:45;2.10;;;0.40;;
9056;SDS011;4563;54.756;9.400;2023-04-01T15:50:34;1.30;;;0.30;;
9056;SDS011;4563;54.756;9.400;2023-04-01T15:53:17;3.93;;;0.60;;
9056;SDS011;4563;54.756;9.400;2023-04-01T15:55:53;0.73;;;0.40;;
9056;SDS011;4563;54.756;9.400;2023-04-01T15:58:38;1.67;;;0.30;;
9056;SDS011;4563;54.756;9.400;2023-04-01T16:01:18;1.30;;;0.40;;
9056;SDS011;4563;54.756;9.400;2023-04-01T16:03:54;5.20;;;0.60;;
9056;SDS011;4563;54.756;9.400;2023-04-01T16:06:37;2.73;;;0.50;;
9056;SDS011;4563;54.756;9.400;2023-04-01T16:09:23;0.40;;;0.33;;
9056;SDS011;4563;54.756;9.400;2023-04-01T16:12:07;0.57;;;0.40;;
9056;SDS011;4563;54.756;9.400;2023-04-01T16:14:44;1.40;;;0.33;;
9056;SDS011;4563;54.756;9.400;2023-04-01T16:17:28;2.63;;;0.20;;
9056;SDS011;4563;54.756;9.400;2023-04-01T16:20:14;2.00;;;0.40;;
9056;SDS011;4563;54.756;9.400;2023-04-01T16:22:45;1.50;;;0.43;;
9056;SDS011;4563;54.756;9.400;2023-04-01T16:25:20;2.30;;;0.30;;
9056;SDS011;4563;54.756;9.400;2023-04-01T16:27:58;2.43;;;0.30;;
9056;SDS011;4563;54.756;9.400;2023-04-01T16:30:40;0.50;;;0.20;;
9056;SDS011;4563;54.756;9.400;2023-04-01T16:33:15;2.47;;;0.33;;
9056;SDS011;4563;54.756;9.400;2023-04-01T16:35:52;1.60;;;0.30;;
9056;SDS011;4563;54.756;9.400;2023-04-01T16:38:24;0.40;;;0.30;;
9056;SDS011;4563;54.756;9.400;2023-04-01T16:41:00;1.00;;;0.30;;
9056;SDS011;4563;54.756;9.400;2023-04-01T16:43:38;0.40;;;0.23;;
9056;SDS011;4563;54.756;9.400;2023-04-01T16:46:17;2.13;;;0.40;;
9056;SDS011;4563;54.756;9.400;2023-04-01T16:49:02;0.83;;;0.30;;
9056;SDS011;4563;54.756;9.400;2023-04-01T16:51:44;2.73;;;0.30;;
9056;SDS011;4563;54.756;9.400;2023-04-01T16:54:16;1.70;;;0.30;;
9056;SDS011;4563;54.756;9.400;2023-04-01T16:56:54;2.97;;;0.43;;
9056;SDS011;4563;54.756;9.400;2023-04-01T16:59:29;1.37;;;0.37;;
9056;SDS011;4563;54.756;9.400;2023-04-01T17:02:02;0.37;;;0.30;;
9056;SDS011;4563;54.756;9.400;2023-04-01T17:04:37;4.10;;;0.30;;
9056;SDS011;4563;54.756;9.400;2023-04-01T17:07:15;0.37;;;0.30;;
9056;SDS011;4563;54.756;9.400;2023-04-01T17:09:58;1.20;;;0.37;;
9056;SDS011;4563;54.756;9.400;2023-04-01T17:12:37;0.77;;;0.40;;
9056;SDS011;4563;54.756;9.400;2023-04-01T17:15:12;0.87;;;0.40;;
9056;SDS011;4563;54.756;9.400;2023-04-01T17:17:45;1.00;;;0.30;;
9056;SDS011;4563;54.756;9.400;2023-04-01T17:20:24;1.43;;;0.20;;
9056;SDS011;4563;54.756;9.400;2023-04-01T17:22:59;1.63;;;0.30;;
9056;SDS011;4563;54.756;9.400;2023-04-01T17:25:33;0.60;;;0.30;;
9056;SDS011;4563;54.756;9.400;2023-04-01T17:28:12;1.87;;;0.30;;
9056;SDS011;4563;54.756;9.400;2023-04-01T17:30:49;0.40;;;0.40;;
9056;SDS011;4563;54.756;9.400;2023-04-01T17:33:31;2.50;;;0.40;;
9056;SDS011;4563;54.756;9.400;2023-04-01T17:36:12;1.37;;;0.50;;
9056;SDS011;4563;54.756;9.400;2023-04-01T17:38:50;2.73;;;0.50;;
9056;SDS011;4563;54.756;9.400;2023-04-01T17:41:32;2.80;;;0.43;;
9056;SDS011;4563;54.756;9.400;2023-04-01T17:44:12;2.37;;;0.60;;